createdAt,value
2019-02-15T00:00:38.191Z,2.70
2019-02-15T00:03:07.291Z,2.33
2019-02-15T00:05:35.928Z,2.03
2019-02-15T00:08:04.878Z,3.07
2019-02-15T00:10:33.495Z,3.50
2019-02-15T00:13:02.133Z,2.47
2019-02-15T00:15:30.777Z,3.40
2019-02-15T00:17:59.435Z,4.93
2019-02-15T00:20:28.122Z,3.30
2019-02-15T00:22:56.770Z,5.30
2019-02-15T00:25:25.758Z,8.20
2019-02-15T00:27:54.422Z,8.27
2019-02-15T00:30:23.045Z,10.60
2019-02-15T00:32:51.693Z,9.03
2019-02-15T00:35:20.314Z,9.03
2019-02-15T00:37:48.950Z,8.30
2019-02-15T00:40:17.574Z,5.93
2019-02-15T00:42:46.219Z,2.90
2019-02-15T00:45:14.834Z,3.40
2019-02-15T00:47:43.493Z,4.00
2019-02-15T00:50:12.398Z,1.20
2019-02-15T00:52:41.058Z,1.47
2019-02-15T00:55:09.690Z,1.00
2019-02-15T00:57:38.647Z,1.93
2019-02-15T01:00:07.279Z,1.03
2019-02-15T01:02:35.922Z,1.33
2019-02-15T01:05:04.572Z,1.67
2019-02-15T01:07:33.242Z,1.50
2019-02-15T01:10:01.848Z,1.50
2019-02-15T01:12:30.503Z,1.17
2019-02-15T01:14:59.137Z,1.63
2019-02-15T01:17:27.830Z,0.80
2019-02-15T01:19:56.431Z,0.73
2019-02-15T01:22:25.063Z,0.77
2019-02-15T01:24:53.967Z,1.73
2019-02-15T01:27:22.613Z,0.90
2019-02-15T01:29:51.250Z,0.83
2019-02-15T01:32:19.892Z,1.30
2019-02-15T01:34:48.909Z,1.13
2019-02-15T01:37:17.542Z,1.20
2019-02-15T01:39:46.190Z,2.03
2019-02-15T01:42:14.815Z,0.63
2019-02-15T01:44:43.463Z,1.00
2019-02-15T01:47:12.423Z,3.87
2019-02-15T01:49:41.420Z,1.10
2019-02-15T01:52:10.051Z,0.87
2019-02-15T01:54:38.991Z,1.23
2019-02-15T01:57:07.622Z,0.83
2019-02-15T01:59:36.565Z,0.70
2019-02-15T02:02:05.198Z,0.63
2019-02-15T02:04:34.168Z,0.83
2019-02-15T02:07:02.804Z,0.83
2019-02-15T02:09:31.469Z,0.70
2019-02-15T02:12:00.394Z,0.87
2019-02-15T02:14:29.279Z,3.20
2019-02-15T02:16:57.913Z,0.80
2019-02-15T02:19:26.858Z,1.10
2019-02-15T02:21:55.756Z,1.90
2019-02-15T02:24:24.406Z,1.23
2019-02-15T02:26:53.041Z,1.50
2019-02-15T02:29:21.672Z,1.73
2019-02-15T02:31:50.314Z,1.07
2019-02-15T02:34:19.268Z,1.00
2019-02-15T02:36:47.914Z,1.00
2019-02-15T02:39:16.538Z,1.00
2019-02-15T02:41:45.167Z,2.40
2019-02-15T02:44:13.786Z,0.83
2019-02-15T02:46:42.408Z,0.73
2019-02-15T02:49:11.048Z,0.60
2019-02-15T02:51:39.948Z,3.17
2019-02-15T02:54:08.941Z,0.80
2019-02-15T02:56:37.552Z,1.00
2019-02-15T02:59:06.173Z,2.47
2019-02-15T03:01:34.793Z,0.80
2019-02-15T03:04:03.424Z,0.70
2019-02-15T03:06:32.140Z,1.40
2019-02-15T03:09:00.682Z,2.63
2019-02-15T03:11:29.633Z,1.13
2019-02-15T03:13:58.614Z,1.00
2019-02-15T03:16:27.509Z,2.07
2019-02-15T03:18:56.404Z,1.00
2019-02-15T03:21:25.008Z,1.23
2019-02-15T03:23:53.634Z,1.00
2019-02-15T03:26:22.249Z,0.53
2019-02-15T03:28:51.077Z,1.17
2019-02-15T03:31:19.676Z,1.27
2019-02-15T03:33:48.313Z,2.40
2019-02-15T03:36:16.916Z,1.53
2019-02-15T03:38:45.551Z,0.50
2019-02-15T03:41:14.172Z,0.90
2019-02-15T03:43:42.797Z,1.33
2019-02-15T03:46:11.403Z,0.70
2019-02-15T03:48:40.392Z,0.83
2019-02-15T03:51:09.003Z,0.80
2019-02-15T03:53:37.969Z,0.50
2019-02-15T03:56:06.598Z,0.77
2019-02-15T03:58:35.225Z,0.90
2019-02-15T04:01:03.853Z,0.80
2019-02-15T04:03:32.511Z,0.67
2019-02-15T04:06:01.117Z,0.77
2019-02-15T04:08:29.732Z,2.80
2019-02-15T04:10:58.370Z,0.70
2019-02-15T04:13:26.986Z,1.00
2019-02-15T04:15:55.636Z,0.97
2019-02-15T04:18:24.264Z,0.93
2019-02-15T04:20:52.907Z,4.20
2019-02-15T04:23:21.511Z,0.33
2019-02-15T04:25:50.171Z,0.70
2019-02-15T04:28:18.826Z,2.23
2019-02-15T04:30:47.841Z,2.17
2019-02-15T04:33:16.702Z,1.77
2019-02-15T04:35:45.362Z,0.97
2019-02-15T04:38:13.978Z,1.57
2019-02-15T04:40:42.604Z,2.27
2019-02-15T04:43:11.226Z,1.93
2019-02-15T04:45:39.870Z,0.80
2019-02-15T04:48:08.732Z,0.93
2019-02-15T04:50:37.366Z,1.37
2019-02-15T04:53:06.011Z,1.03
2019-02-15T04:55:34.949Z,1.20
2019-02-15T04:58:03.572Z,0.90
2019-02-15T05:00:32.534Z,1.13
2019-02-15T05:03:01.165Z,1.13
2019-02-15T05:05:30.154Z,0.93
2019-02-15T05:07:59.094Z,0.97
2019-02-15T05:10:27.727Z,2.10
2019-02-15T05:12:56.664Z,2.23
2019-02-15T05:15:25.280Z,2.00
2019-02-15T05:17:54.264Z,1.93
2019-02-15T05:20:22.893Z,1.90
2019-02-15T05:22:51.517Z,3.40
2019-02-15T05:25:20.502Z,2.53
2019-02-15T05:27:49.519Z,2.63
2019-02-15T05:30:18.152Z,2.10
2019-02-15T05:32:46.766Z,2.87
2019-02-15T05:35:15.415Z,3.00
2019-02-15T05:37:44.326Z,2.53
2019-02-15T05:40:12.959Z,5.73
2019-02-15T05:42:41.572Z,5.33
2019-02-15T05:45:10.200Z,1.57
2019-02-15T05:47:38.832Z,1.57
2019-02-15T05:50:07.758Z,1.20
2019-02-15T05:52:36.364Z,0.80
2019-02-15T05:55:04.997Z,1.63
2019-02-15T05:57:33.612Z,2.40
2019-02-15T06:00:02.231Z,2.20
2019-02-15T06:02:31.169Z,1.20
2019-02-15T06:04:59.799Z,1.00
2019-02-15T06:07:28.409Z,0.80
2019-02-15T06:09:57.031Z,0.60
2019-02-15T06:12:26.041Z,0.80
2019-02-15T06:14:54.994Z,0.57
2019-02-15T06:17:23.610Z,1.60
2019-02-15T06:19:52.254Z,1.33
2019-02-15T06:22:21.143Z,0.90
2019-02-15T06:24:49.771Z,0.80
2019-02-15T06:27:18.382Z,3.67
2019-02-15T06:29:47.300Z,0.90
2019-02-15T06:32:15.921Z,4.10
2019-02-15T06:34:44.884Z,2.07
2019-02-15T06:37:13.533Z,1.50
2019-02-15T06:39:42.168Z,3.07
2019-02-15T06:42:10.785Z,1.97
2019-02-15T06:44:39.403Z,2.17
2019-02-15T06:47:08.206Z,1.43
2019-02-15T06:49:36.773Z,2.57
2019-02-15T06:52:05.413Z,1.77
2019-02-15T06:54:34.019Z,1.77
2019-02-15T06:57:02.654Z,1.00
2019-02-15T06:59:31.263Z,0.57
2019-02-15T07:02:00.201Z,0.80
2019-02-15T07:04:28.813Z,1.37
2019-02-15T07:06:57.445Z,2.90
2019-02-15T07:09:26.061Z,3.23
2019-02-15T07:11:54.673Z,1.40
2019-02-15T07:14:23.281Z,1.93
2019-02-15T07:16:51.917Z,0.70
2019-02-15T07:19:20.534Z,1.57
2019-02-15T07:21:49.160Z,1.33
2019-02-15T07:24:18.037Z,1.20
2019-02-15T07:26:46.671Z,3.27
2019-02-15T07:29:15.277Z,2.30
2019-02-15T07:31:43.911Z,6.90
2019-02-15T07:34:12.535Z,2.33
2019-02-15T07:36:41.181Z,6.23
2019-02-15T07:39:10.137Z,4.23
2019-02-15T07:41:38.779Z,5.10
2019-02-15T07:44:07.710Z,7.93
2019-02-15T07:46:36.701Z,8.80
2019-02-15T07:49:05.323Z,9.07
2019-02-15T07:51:34.279Z,8.10
2019-02-15T07:54:02.883Z,12.67
2019-02-15T07:56:31.513Z,13.13
2019-02-15T07:59:00.122Z,8.27
2019-02-15T08:01:28.756Z,10.40
2019-02-15T08:03:57.367Z,6.00
2019-02-15T08:06:26.010Z,7.00
2019-02-15T08:08:54.615Z,7.10
2019-02-15T08:11:23.236Z,8.90
2019-02-15T08:13:52.226Z,5.87
2019-02-15T08:16:20.857Z,6.73
2019-02-15T08:18:49.798Z,7.60
2019-02-15T08:21:18.448Z,5.33
2019-02-15T08:23:47.080Z,8.87
2019-02-15T08:26:15.689Z,6.37
2019-02-15T08:28:44.305Z,4.97
2019-02-15T08:31:12.950Z,6.90
2019-02-15T08:33:41.557Z,4.10
2019-02-15T08:36:10.488Z,8.17
2019-02-15T08:38:39.099Z,3.70
2019-02-15T08:41:07.725Z,5.10
2019-02-15T08:43:36.346Z,7.53
2019-02-15T08:46:04.981Z,5.73
2019-02-15T08:48:33.592Z,7.87
2019-02-15T08:51:02.208Z,5.03
2019-02-15T08:53:30.819Z,4.37
2019-02-15T08:55:59.439Z,3.40
2019-02-15T08:58:28.047Z,3.70
2019-02-15T09:00:56.656Z,2.50
2019-02-15T09:03:25.283Z,4.07
2019-02-15T09:05:53.962Z,4.43
2019-02-15T09:08:22.514Z,3.63
2019-02-15T09:10:51.115Z,4.00
2019-02-15T09:13:19.776Z,4.73
2019-02-15T09:15:48.381Z,5.70
2019-02-15T09:18:17.015Z,7.30
2019-02-15T09:20:45.972Z,7.87
2019-02-15T09:23:14.606Z,8.03
2019-02-15T09:25:43.552Z,5.63
2019-02-15T09:28:12.208Z,6.73
2019-02-15T09:30:40.823Z,5.13
2019-02-15T09:33:09.448Z,4.90
2019-02-15T09:35:38.076Z,5.73
2019-02-15T09:38:06.719Z,8.00
2019-02-15T09:40:35.393Z,5.30
2019-02-15T09:43:04.333Z,3.50
2019-02-15T09:45:33.104Z,4.53
2019-02-15T09:48:01.577Z,5.77
2019-02-15T09:50:30.206Z,7.37
2019-02-15T09:52:58.854Z,6.97
2019-02-15T09:55:27.449Z,5.93
2019-02-15T09:57:56.087Z,5.00
2019-02-15T10:00:24.713Z,6.17
2019-02-15T10:02:53.341Z,6.73
2019-02-15T10:05:21.952Z,4.43
2019-02-15T10:07:50.582Z,4.97
2019-02-15T10:10:19.204Z,6.93
2019-02-15T10:12:48.024Z,5.47
2019-02-15T10:15:16.460Z,5.43
2019-02-15T10:17:45.096Z,6.97
2019-02-15T10:20:14.084Z,3.70
2019-02-15T10:22:43.073Z,4.87
2019-02-15T10:25:11.707Z,4.67
2019-02-15T10:27:40.347Z,5.53
2019-02-15T10:30:11.901Z,5.97
2019-02-15T10:32:40.549Z,7.83
2019-02-15T10:35:09.203Z,7.67
2019-02-15T10:37:37.864Z,7.33
2019-02-15T10:42:44.591Z,6.67
2019-02-15T10:45:16.402Z,6.53
2019-02-15T10:47:45.075Z,4.73
2019-02-15T10:50:13.691Z,6.30
2019-02-15T10:52:42.325Z,5.17
2019-02-15T10:55:11.317Z,9.60
2019-02-15T10:57:39.961Z,5.60
2019-02-15T11:00:08.895Z,5.20
2019-02-15T11:02:37.558Z,6.40
2019-02-15T11:05:06.184Z,4.97
2019-02-15T11:07:34.827Z,4.87
2019-02-15T11:10:03.466Z,3.63
2019-02-15T11:12:32.421Z,5.07
2019-02-15T11:15:01.060Z,5.53
2019-02-15T11:17:29.691Z,4.13
2019-02-15T11:19:58.364Z,4.20
2019-02-15T11:22:27.013Z,5.53
2019-02-15T11:24:55.942Z,6.87
2019-02-15T11:27:24.932Z,6.30
2019-02-15T11:29:53.539Z,7.70
2019-02-15T11:32:22.281Z,5.20
2019-02-15T11:34:50.914Z,10.93
2019-02-15T11:37:19.549Z,6.27
2019-02-15T11:39:48.170Z,8.57
2019-02-15T11:42:16.820Z,5.23
2019-02-15T11:44:45.437Z,6.07
2019-02-15T11:47:14.416Z,5.87
2019-02-15T11:49:43.395Z,7.70
2019-02-15T11:52:12.039Z,5.10
2019-02-15T11:54:40.650Z,7.13
2019-02-15T11:57:09.283Z,5.67
2019-02-15T11:59:37.927Z,5.73
2019-02-15T12:02:06.934Z,8.93
2019-02-15T12:04:35.561Z,6.93
2019-02-15T12:07:04.183Z,7.70
2019-02-15T12:09:32.807Z,7.23
2019-02-15T12:12:10.117Z,7.20
2019-02-15T12:14:30.389Z,7.53
2019-02-15T12:17:05.513Z,8.77
2019-02-15T12:19:27.643Z,6.30
2019-02-15T12:21:56.254Z,4.07
2019-02-15T12:24:24.877Z,3.77
2019-02-15T12:26:53.859Z,5.17
2019-02-15T12:29:22.745Z,5.50
2019-02-15T12:31:51.366Z,4.13
2019-02-15T12:34:19.993Z,6.53
2019-02-15T12:36:48.622Z,7.50
2019-02-15T12:39:17.264Z,4.47
2019-02-15T12:41:45.898Z,5.90
2019-02-15T12:44:14.521Z,5.17
2019-02-15T12:46:43.126Z,6.87
2019-02-15T12:49:11.761Z,6.83
2019-02-15T12:51:40.394Z,3.57
2019-02-15T12:54:09.383Z,5.73
2019-02-15T12:56:37.990Z,4.57
2019-02-15T12:59:06.624Z,5.63
2019-02-15T13:01:35.534Z,3.43
2019-02-15T13:04:04.527Z,6.53
2019-02-15T13:06:33.142Z,6.03
2019-02-15T13:09:01.770Z,4.87
2019-02-15T13:11:30.418Z,5.33
2019-02-15T13:13:59.044Z,5.00
2019-02-15T13:16:27.943Z,6.20
2019-02-15T13:18:57.064Z,6.17
2019-02-15T13:21:25.188Z,3.67
2019-02-15T13:23:53.819Z,4.33
2019-02-15T13:26:22.539Z,5.63
2019-02-15T13:28:51.077Z,8.43
2019-02-15T13:31:20.046Z,4.10
2019-02-15T13:33:48.679Z,3.77
2019-02-15T13:36:17.331Z,4.47
2019-02-15T13:38:45.967Z,6.37
2019-02-15T13:41:14.579Z,5.97
2019-02-15T13:43:43.574Z,4.20
2019-02-15T13:46:12.183Z,5.00
2019-02-15T13:48:40.818Z,4.80
2019-02-15T13:51:09.436Z,6.30
2019-02-15T13:53:38.434Z,8.00
2019-02-15T13:56:07.052Z,8.73
2019-02-15T13:58:35.679Z,8.03
2019-02-15T14:01:04.298Z,6.40
2019-02-15T14:03:32.949Z,6.57
2019-02-15T14:06:01.831Z,7.20
2019-02-15T14:08:30.818Z,7.47
2019-02-15T14:10:59.705Z,8.17
2019-02-15T14:13:28.326Z,6.17
2019-02-15T14:15:56.984Z,7.47
2019-02-15T14:18:25.621Z,6.87
2019-02-15T14:20:54.240Z,8.43
2019-02-15T14:23:22.854Z,5.30
2019-02-15T14:25:51.467Z,4.30
2019-02-15T14:28:20.093Z,6.80
2019-02-15T14:30:48.718Z,11.60
2019-02-15T14:33:17.340Z,7.60
2019-02-15T14:35:46.001Z,8.97
2019-02-15T14:38:14.600Z,6.50
2019-02-15T14:40:43.229Z,9.17
2019-02-15T14:43:11.849Z,6.00
2019-02-15T14:45:40.778Z,6.27
2019-02-15T14:48:09.385Z,5.47
2019-02-15T14:50:38.343Z,8.17
2019-02-15T14:53:06.944Z,6.97
2019-02-15T14:55:35.578Z,6.13
2019-02-15T14:58:04.210Z,10.17
2019-02-15T15:00:32.841Z,10.63
2019-02-15T15:03:01.765Z,6.10
2019-02-15T15:05:30.654Z,8.40
2019-02-15T15:07:59.562Z,8.27
2019-02-15T15:10:28.190Z,9.77
2019-02-15T15:12:56.791Z,6.33
2019-02-15T15:15:25.718Z,6.30
2019-02-15T15:18:02.310Z,6.87
2019-02-15T15:20:22.970Z,8.20
2019-02-15T15:22:51.597Z,7.23
2019-02-15T15:25:20.538Z,7.57
2019-02-15T15:27:49.146Z,6.27
2019-02-15T15:30:18.108Z,8.93
2019-02-15T15:32:46.721Z,8.40
2019-02-15T15:35:15.350Z,5.43
2019-02-15T15:37:44.262Z,6.97
2019-02-15T15:40:15.905Z,7.40
2019-02-15T15:42:44.805Z,9.53
2019-02-15T15:45:13.450Z,7.10
2019-02-15T15:47:42.377Z,8.87
2019-02-15T15:50:11.367Z,8.97
2019-02-15T15:52:40.255Z,11.20
2019-02-15T15:55:08.892Z,7.70
2019-02-15T15:57:37.511Z,9.03
2019-02-15T16:00:14.967Z,13.60
2019-02-15T16:02:43.897Z,21.77
2019-02-15T16:05:12.533Z,9.07
2019-02-15T16:07:43.416Z,8.63
2019-02-15T16:10:10.159Z,9.90
2019-02-15T16:12:38.766Z,10.97
2019-02-15T16:15:07.414Z,4.93
2019-02-15T16:17:36.035Z,9.27
2019-02-15T16:20:04.689Z,8.57
2019-02-15T16:22:33.301Z,14.87
2019-02-15T16:25:01.938Z,8.80
2019-02-15T16:27:30.546Z,11.60
2019-02-15T16:29:59.164Z,12.13
2019-02-15T16:32:27.776Z,13.87
2019-02-15T16:34:56.396Z,13.70
2019-02-15T16:37:25.068Z,9.90
2019-02-15T16:39:53.691Z,12.70
2019-02-15T16:42:22.313Z,10.20
2019-02-15T16:44:50.929Z,9.97
2019-02-15T16:47:19.544Z,10.07
2019-02-15T16:49:48.159Z,9.87
2019-02-15T16:52:17.272Z,10.13
2019-02-15T16:54:45.900Z,7.93
2019-02-15T16:57:14.522Z,10.27
2019-02-15T16:59:43.174Z,17.97
2019-02-15T17:02:11.795Z,10.37
2019-02-15T17:04:40.801Z,9.50
2019-02-15T17:07:09.445Z,12.47
2019-02-15T17:09:38.077Z,9.33
2019-02-15T17:12:06.700Z,15.13
2019-02-15T17:14:35.635Z,12.00
2019-02-15T17:17:04.286Z,9.03
2019-02-15T17:19:33.208Z,15.63
2019-02-15T17:22:01.894Z,9.27
2019-02-15T17:24:30.495Z,8.83
2019-02-15T17:26:59.565Z,8.33
2019-02-15T17:29:28.454Z,10.37
2019-02-15T17:31:57.091Z,9.00
2019-02-15T17:34:25.698Z,7.10
2019-02-15T17:36:54.335Z,7.77
2019-02-15T17:39:23.287Z,9.73
2019-02-15T17:41:51.932Z,7.00
2019-02-15T17:44:20.559Z,9.27
2019-02-15T17:46:49.205Z,7.90
2019-02-15T17:49:18.128Z,7.20
2019-02-15T17:51:46.766Z,8.50
2019-02-15T17:54:15.376Z,12.23
2019-02-15T17:56:44.009Z,7.30
2019-02-15T17:59:12.645Z,5.93
2019-02-15T18:01:41.277Z,5.53
2019-02-15T18:04:09.902Z,6.70
2019-02-15T18:06:38.564Z,5.20
2019-02-15T18:09:07.199Z,6.50
2019-02-15T18:11:36.395Z,4.40
2019-02-15T18:14:05.013Z,5.47
2019-02-15T18:16:33.738Z,4.17
2019-02-15T18:19:09.854Z,6.53
2019-02-15T18:21:31.291Z,10.70
2019-02-15T18:23:59.917Z,8.63
2019-02-15T18:26:28.919Z,8.17
2019-02-15T18:28:57.531Z,6.80
2019-02-15T18:31:26.214Z,9.07
2019-02-15T18:33:55.158Z,6.67
2019-02-15T18:36:24.148Z,6.60
2019-02-15T18:38:52.780Z,9.80
2019-02-15T18:41:21.414Z,4.83
2019-02-15T18:43:50.023Z,4.83
2019-02-15T18:46:18.687Z,4.20
2019-02-15T18:48:47.305Z,6.37
2019-02-15T18:51:15.967Z,4.50
2019-02-15T18:53:44.937Z,4.33
2019-02-15T18:56:13.951Z,4.40
2019-02-15T18:58:42.576Z,6.53
2019-02-15T19:01:11.209Z,12.27
2019-02-15T19:03:39.834Z,12.63
2019-02-15T19:06:08.488Z,11.33
2019-02-15T19:08:37.112Z,6.33
2019-02-15T19:11:06.026Z,7.77
2019-02-15T19:13:34.947Z,9.13
2019-02-15T19:16:03.578Z,5.60
2019-02-15T19:18:32.352Z,4.47
2019-02-15T19:21:01.175Z,5.17
2019-02-15T19:23:29.812Z,6.47
2019-02-15T19:25:58.442Z,3.30
2019-02-15T19:28:27.332Z,5.07
2019-02-15T19:30:55.970Z,4.10
2019-02-15T19:33:24.605Z,4.13
2019-02-15T19:35:53.239Z,5.93
2019-02-15T19:38:21.864Z,5.27
2019-02-15T19:40:50.477Z,5.43
2019-02-15T19:43:19.112Z,5.13
2019-02-15T19:45:47.740Z,4.97
2019-02-15T19:48:16.373Z,8.00
2019-02-15T19:50:44.974Z,6.17
2019-02-15T19:53:13.597Z,6.03
2019-02-15T19:55:42.227Z,5.77
2019-02-15T19:58:10.834Z,5.37
2019-02-15T20:00:39.462Z,6.43
2019-02-15T20:03:08.094Z,6.77
2019-02-15T20:05:36.709Z,6.63
2019-02-15T20:08:05.356Z,5.53
2019-02-15T20:10:33.963Z,5.43
2019-02-15T20:13:02.591Z,5.73
2019-02-15T20:15:31.199Z,6.93
2019-02-15T20:17:59.823Z,6.23
2019-02-15T20:20:28.448Z,6.13
2019-02-15T20:22:57.081Z,4.90
2019-02-15T20:25:26.042Z,7.53
2019-02-15T20:27:55.031Z,7.00
2019-02-15T20:30:23.654Z,6.30
2019-02-15T20:32:52.304Z,5.10
2019-02-15T20:35:20.930Z,5.53
2019-02-15T20:37:49.561Z,5.70
2019-02-15T20:40:18.451Z,4.97
2019-02-15T20:42:47.447Z,5.53
2019-02-15T20:45:18.790Z,5.40
2019-02-15T20:47:47.416Z,3.40
2019-02-15T20:50:16.041Z,2.87
2019-02-15T20:52:44.675Z,2.40
2019-02-15T20:55:13.627Z,2.17
2019-02-15T20:57:42.529Z,1.60
2019-02-15T21:00:17.180Z,1.70
2019-02-15T21:02:45.819Z,1.30
2019-02-15T21:05:14.451Z,1.27
2019-02-15T21:07:43.086Z,1.37
2019-02-15T21:10:11.710Z,1.40
2019-02-15T21:12:40.382Z,2.03
2019-02-15T21:15:11.843Z,4.47
2019-02-15T21:17:40.473Z,3.77
2019-02-15T21:20:12.091Z,3.37
2019-02-15T21:22:41.018Z,4.00
2019-02-15T21:25:12.426Z,3.50
2019-02-15T21:27:41.363Z,5.07
2019-02-15T21:30:19.310Z,4.03
2019-02-15T21:32:48.256Z,4.67
2019-02-15T21:35:17.294Z,5.17
2019-02-15T21:37:45.928Z,4.33
2019-02-15T21:40:17.549Z,6.00
2019-02-15T21:42:46.174Z,5.13
2019-02-15T21:45:14.802Z,4.87
2019-02-15T21:47:43.441Z,5.00
2019-02-15T21:50:17.014Z,4.73
2019-02-15T21:52:44.194Z,5.00
2019-02-15T21:55:09.714Z,6.23
2019-02-15T21:57:38.348Z,4.07
2019-02-15T22:00:13.154Z,5.10
2019-02-15T22:02:41.798Z,4.50
2019-02-15T22:05:10.425Z,6.10
2019-02-15T22:07:39.044Z,5.00
2019-02-15T22:10:07.695Z,5.97
2019-02-15T22:12:36.301Z,4.67
2019-02-15T22:15:04.945Z,4.87
2019-02-15T22:17:33.562Z,4.40
2019-02-15T22:20:02.198Z,5.23
2019-02-15T22:22:30.802Z,5.43
2019-02-15T22:24:59.412Z,5.13
2019-02-15T22:27:28.026Z,7.63
2019-02-15T22:29:56.652Z,6.70
2019-02-15T22:32:25.261Z,6.23
2019-02-15T22:34:53.880Z,5.93
2019-02-15T22:37:22.512Z,4.93
2019-02-15T22:39:51.132Z,5.90
2019-02-15T22:42:19.747Z,5.60
2019-02-15T22:44:48.381Z,5.93
2019-02-15T22:47:17.003Z,5.37
2019-02-15T22:49:45.983Z,6.80
2019-02-15T22:52:14.591Z,5.50
2019-02-15T22:54:43.220Z,7.13
2019-02-15T22:57:11.851Z,5.17
2019-02-15T22:59:40.815Z,4.93
2019-02-15T23:02:09.429Z,4.17
2019-02-15T23:04:38.361Z,5.97
2019-02-15T23:07:06.977Z,5.43
2019-02-15T23:09:35.612Z,5.87
2019-02-15T23:12:04.226Z,6.03
2019-02-15T23:14:32.859Z,5.43
2019-02-15T23:17:01.481Z,5.00
2019-02-15T23:19:30.109Z,4.23
2019-02-15T23:21:58.739Z,4.83
2019-02-15T23:24:27.369Z,6.20
2019-02-15T23:26:55.975Z,4.33
2019-02-15T23:29:24.891Z,9.10
2019-02-15T23:31:53.498Z,8.47
2019-02-15T23:34:22.467Z,7.97
2019-02-15T23:36:51.095Z,9.03
2019-02-15T23:39:19.714Z,9.83
2019-02-15T23:41:48.623Z,10.07
2019-02-15T23:44:17.615Z,7.83
2019-02-15T23:46:46.226Z,10.63
2019-02-15T23:49:14.859Z,6.47
2019-02-15T23:51:43.475Z,6.60
2019-02-15T23:54:12.095Z,4.53
2019-02-15T23:56:40.719Z,5.83
2019-02-15T23:59:09.364Z,5.60
